createdAt,value
2022-08-17T00:01:57.322Z,99.90
2022-08-17T00:04:50.682Z,99.90
2022-08-17T00:07:38.677Z,99.90
2022-08-17T00:10:27.492Z,99.90
2022-08-17T00:13:26.148Z,99.90
2022-08-17T00:16:23.056Z,99.90
2022-08-17T00:19:32.758Z,99.90
2022-08-17T00:22:34.430Z,99.90
2022-08-17T00:25:23.886Z,99.90
2022-08-17T00:28:14.969Z,99.90
2022-08-17T00:31:07.000Z,99.90
2022-08-17T00:33:54.863Z,99.90
2022-08-17T00:36:42.801Z,99.90
2022-08-17T00:39:30.960Z,99.90
2022-08-17T00:42:20.004Z,99.90
2022-08-17T00:45:12.035Z,99.90
2022-08-17T00:47:59.921Z,99.90
2022-08-17T00:51:12.926Z,99.90
2022-08-17T00:54:23.016Z,99.90
2022-08-17T00:57:18.668Z,99.90
2022-08-17T01:00:35.447Z,99.90
2022-08-17T01:03:26.212Z,99.90
2022-08-17T01:06:14.157Z,99.90
2022-08-17T01:09:03.516Z,99.90
2022-08-17T01:11:52.422Z,99.90
2022-08-17T01:14:40.917Z,99.90
2022-08-17T01:17:28.880Z,99.90
2022-08-17T01:20:17.045Z,99.90
2022-08-17T01:23:05.126Z,99.90
2022-08-17T01:25:57.498Z,99.90
2022-08-17T01:28:54.621Z,99.90
2022-08-17T01:31:49.837Z,99.90
2022-08-17T01:34:43.580Z,99.90
2022-08-17T01:37:42.451Z,99.90
2022-08-17T01:40:41.113Z,99.90
2022-08-17T01:43:45.224Z,99.90
2022-08-17T01:46:37.416Z,99.90
2022-08-17T01:49:25.348Z,99.90
2022-08-17T01:52:13.751Z,99.90
2022-08-17T01:55:02.330Z,99.90
2022-08-17T01:57:50.154Z,99.90
2022-08-17T02:00:59.665Z,99.90
2022-08-17T02:03:59.331Z,99.90
2022-08-17T02:06:54.365Z,99.90
2022-08-17T02:09:43.982Z,99.90
2022-08-17T02:12:40.457Z,99.90
2022-08-17T02:15:29.400Z,99.90
2022-08-17T02:18:17.353Z,99.90
2022-08-17T02:21:05.885Z,99.90
2022-08-17T02:23:55.077Z,99.90
2022-08-17T02:26:43.294Z,99.90
2022-08-17T02:29:31.377Z,99.90
2022-08-17T02:32:28.455Z,99.90
2022-08-17T02:35:16.445Z,99.90
2022-08-17T02:38:08.267Z,99.90
2022-08-17T02:40:56.229Z,99.90
2022-08-17T02:43:44.041Z,99.90
2022-08-17T02:46:32.712Z,99.90
2022-08-17T02:49:20.558Z,99.90
2022-08-17T02:52:11.422Z,99.90
2022-08-17T02:54:59.223Z,99.90
2022-08-17T02:57:47.811Z,99.90
2022-08-17T03:00:43.981Z,99.90
2022-08-17T03:03:31.923Z,99.90
2022-08-17T03:06:19.839Z,99.90
2022-08-17T03:09:07.933Z,99.90
2022-08-17T03:11:56.226Z,99.90
2022-08-17T03:14:44.848Z,99.90
2022-08-17T03:17:32.748Z,99.90
2022-08-17T03:20:21.676Z,99.90
2022-08-17T03:23:10.055Z,99.90
2022-08-17T03:26:01.975Z,99.90
2022-08-17T03:28:50.065Z,99.90
2022-08-17T03:31:37.909Z,99.90
2022-08-17T03:34:25.738Z,99.90
2022-08-17T03:37:13.607Z,99.90
2022-08-17T03:40:02.895Z,99.90
2022-08-17T03:42:53.367Z,99.90
2022-08-17T03:46:03.047Z,99.90
2022-08-17T03:49:10.802Z,99.90
2022-08-17T03:52:17.106Z,99.90
2022-08-17T03:55:35.860Z,99.90
2022-08-17T03:58:24.377Z,99.90
2022-08-17T04:01:12.887Z,99.90
2022-08-17T04:04:00.751Z,99.90
2022-08-17T04:06:48.639Z,99.90
2022-08-17T04:09:36.622Z,99.90
2022-08-17T04:12:25.610Z,99.90
2022-08-17T04:15:13.660Z,99.90
2022-08-17T04:18:01.535Z,99.90
2022-08-17T04:20:49.379Z,99.90
2022-08-17T04:23:37.943Z,99.90
2022-08-17T04:26:53.039Z,99.90
2022-08-17T04:29:49.933Z,99.90
2022-08-17T04:33:06.306Z,99.90
2022-08-17T04:36:02.817Z,99.90
2022-08-17T04:38:50.750Z,99.90
2022-08-17T04:42:17.109Z,99.90
2022-08-17T04:45:05.646Z,99.90
2022-08-17T04:47:53.582Z,99.90
2022-08-17T04:50:46.877Z,99.90
2022-08-17T04:53:34.879Z,99.90
2022-08-17T04:56:25.808Z,99.90
2022-08-17T04:59:21.084Z,99.90
2022-08-17T05:02:08.950Z,99.90
2022-08-17T05:04:56.874Z,99.90
2022-08-17T05:07:44.982Z,99.90
2022-08-17T05:10:39.126Z,99.90
2022-08-17T05:13:33.537Z,99.90
2022-08-17T05:16:23.454Z,99.90
2022-08-17T05:19:11.310Z,99.90
2022-08-17T05:21:59.198Z,99.90
2022-08-17T05:24:53.442Z,99.90
2022-08-17T05:27:41.883Z,99.90
2022-08-17T05:30:31.279Z,99.90
2022-08-17T05:33:29.496Z,99.90
2022-08-17T05:36:43.659Z,99.90
2022-08-17T05:39:25.614Z,99.90
2022-08-17T05:42:19.562Z,99.90
2022-08-17T05:45:09.601Z,99.90
2022-08-17T05:47:57.656Z,99.90
2022-08-17T05:51:25.798Z,99.90
2022-08-17T05:54:55.139Z,99.90
2022-08-17T05:58:06.831Z,99.90
2022-08-17T06:01:31.731Z,99.90
2022-08-17T06:04:36.062Z,99.90
2022-08-17T06:07:29.479Z,99.90
2022-08-17T06:10:43.954Z,99.90
2022-08-17T06:14:01.896Z,99.90
2022-08-17T06:16:59.138Z,99.90
2022-08-17T06:19:56.627Z,99.90
2022-08-17T06:22:52.567Z,99.90
2022-08-17T06:25:50.276Z,99.90
2022-08-17T06:28:51.329Z,99.90
2022-08-17T06:31:40.657Z,99.90
2022-08-17T06:34:30.251Z,99.90
2022-08-17T06:37:48.923Z,99.90
2022-08-17T06:41:27.634Z,99.90
2022-08-17T06:44:43.479Z,99.90
2022-08-17T06:48:07.422Z,99.90
2022-08-17T06:51:09.110Z,99.90
2022-08-17T06:54:18.231Z,99.90
2022-08-17T06:57:31.981Z,99.90
2022-08-17T07:00:33.573Z,99.90
2022-08-17T07:03:41.067Z,99.90
2022-08-17T07:06:41.287Z,99.90
2022-08-17T07:09:36.241Z,99.90
2022-08-17T07:12:37.549Z,99.90
2022-08-17T07:15:44.470Z,99.90
2022-08-17T07:18:35.974Z,99.90
2022-08-17T07:24:51.656Z,99.90
2022-08-17T07:27:52.602Z,99.90
2022-08-17T07:30:49.347Z,99.90
2022-08-17T07:33:42.339Z,99.90
2022-08-17T07:36:34.432Z,99.90
2022-08-17T07:39:28.951Z,99.90
2022-08-17T07:42:19.863Z,99.90
2022-08-17T07:45:29.014Z,99.90
2022-08-17T07:48:28.423Z,99.90
2022-08-17T07:51:25.160Z,99.90
2022-08-17T07:54:25.861Z,99.90
2022-08-17T07:57:33.311Z,99.90
2022-08-17T08:00:32.502Z,99.90
2022-08-17T08:03:31.702Z,99.90
2022-08-17T08:06:26.397Z,99.90
2022-08-17T08:09:36.305Z,99.90
2022-08-17T08:12:47.202Z,99.90
2022-08-17T08:15:54.793Z,99.90
2022-08-17T08:18:55.493Z,99.90
2022-08-17T08:22:10.851Z,99.90
2022-08-17T08:25:11.257Z,99.90
2022-08-17T08:28:36.781Z,99.90
2022-08-17T08:32:13.408Z,99.90
2022-08-17T08:35:14.636Z,99.90
2022-08-17T08:38:53.687Z,99.90
2022-08-17T08:42:23.707Z,99.90
2022-08-17T08:45:28.609Z,99.90
2022-08-17T08:48:56.260Z,99.90
2022-08-17T08:52:01.967Z,99.90
2022-08-17T08:55:13.329Z,99.90
2022-08-17T08:58:31.429Z,99.90
2022-08-17T09:01:48.905Z,99.90
2022-08-17T09:05:13.472Z,99.90
2022-08-17T09:08:30.111Z,99.90
2022-08-17T09:12:01.133Z,99.90
2022-08-17T09:15:22.606Z,99.90
2022-08-17T09:19:01.133Z,99.90
2022-08-17T09:22:19.168Z,99.90
2022-08-17T09:25:16.797Z,99.90
2022-08-17T09:28:33.340Z,99.90
2022-08-17T09:31:48.757Z,99.90
2022-08-17T09:34:53.585Z,99.90
2022-08-17T09:38:04.556Z,99.90
2022-08-17T09:41:15.490Z,99.90
2022-08-17T09:44:26.559Z,99.90
2022-08-17T09:47:50.589Z,99.90
2022-08-17T09:51:09.684Z,99.90
2022-08-17T09:54:21.365Z,99.90
2022-08-17T09:57:56.759Z,99.90
2022-08-17T10:01:03.877Z,99.90
2022-08-17T10:04:29.566Z,99.90
2022-08-17T10:07:56.013Z,99.90
2022-08-17T10:11:05.890Z,99.90
2022-08-17T10:14:55.076Z,99.90
2022-08-17T10:18:21.450Z,99.90
2022-08-17T10:21:36.222Z,99.90
2022-08-17T10:25:21.807Z,99.90
2022-08-17T10:28:22.829Z,99.90
2022-08-17T10:31:36.558Z,99.90
2022-08-17T10:35:08.537Z,99.90
2022-08-17T10:38:34.736Z,99.90
2022-08-17T10:41:53.075Z,99.90
2022-08-17T10:45:04.155Z,99.90
2022-08-17T10:48:39.860Z,99.90
2022-08-17T10:51:43.525Z,99.90
2022-08-17T10:55:02.629Z,99.90
2022-08-17T10:58:22.206Z,99.90
2022-08-17T11:01:14.975Z,99.90
2022-08-17T11:04:42.501Z,99.90
2022-08-17T11:08:05.229Z,99.90
2022-08-17T11:11:35.926Z,99.90
2022-08-17T11:15:01.116Z,99.90
2022-08-17T11:18:54.329Z,99.90
2022-08-17T11:22:09.309Z,99.90
2022-08-17T11:25:22.950Z,99.90
2022-08-17T11:28:26.085Z,99.90
2022-08-17T11:31:44.290Z,99.90
2022-08-17T11:34:37.081Z,99.90
2022-08-17T11:38:03.074Z,99.90
2022-08-17T11:41:27.452Z,99.90
2022-08-17T11:44:43.545Z,99.90
2022-08-17T11:48:28.985Z,99.90
2022-08-17T11:51:28.645Z,99.90
2022-08-17T11:54:45.744Z,99.90
2022-08-17T11:57:34.507Z,99.90
2022-08-17T12:00:51.526Z,99.90
2022-08-17T12:03:53.793Z,99.90
2022-08-17T12:07:12.809Z,99.90
2022-08-17T12:10:02.409Z,99.90
2022-08-17T12:12:54.198Z,99.90
2022-08-17T12:15:50.194Z,99.90
2022-08-17T12:18:53.396Z,99.90
2022-08-17T12:22:04.197Z,99.90
2022-08-17T12:25:33.244Z,99.90
2022-08-17T12:28:37.200Z,99.90
2022-08-17T12:31:47.246Z,99.90
2022-08-17T12:34:46.203Z,99.90
2022-08-17T12:37:45.984Z,99.90
2022-08-17T12:40:38.093Z,99.90
2022-08-17T12:43:32.877Z,99.90
2022-08-17T12:46:25.761Z,99.90
2022-08-17T12:49:24.660Z,99.90
2022-08-17T12:52:32.829Z,99.90
2022-08-17T12:55:33.775Z,99.90
2022-08-17T12:58:31.515Z,99.90
2022-08-17T13:01:25.074Z,99.90
2022-08-17T13:04:20.305Z,99.90
2022-08-17T13:07:12.105Z,99.90
2022-08-17T13:10:02.912Z,99.90
2022-08-17T13:12:57.408Z,99.90
2022-08-17T13:16:15.969Z,99.90
2022-08-17T13:19:39.857Z,99.90
2022-08-17T13:22:34.767Z,99.90
2022-08-17T13:25:29.517Z,99.90
2022-08-17T13:28:30.668Z,99.90
2022-08-17T13:31:51.912Z,99.90
2022-08-17T13:35:13.781Z,99.90
2022-08-17T13:38:10.206Z,99.90
2022-08-17T13:41:01.832Z,99.90
2022-08-17T13:43:53.779Z,99.90
2022-08-17T13:46:56.946Z,99.90
2022-08-17T13:49:49.524Z,99.90
2022-08-17T13:52:43.756Z,99.90
2022-08-17T13:55:36.457Z,99.90
2022-08-17T13:58:39.774Z,99.90
2022-08-17T14:01:52.819Z,99.90
2022-08-17T14:04:46.943Z,99.90
2022-08-17T14:07:40.654Z,99.90
2022-08-17T14:10:30.368Z,99.90
2022-08-17T14:13:21.226Z,99.90
2022-08-17T14:16:13.644Z,99.90
2022-08-17T14:19:06.254Z,99.90
2022-08-17T14:21:58.825Z,99.90
2022-08-17T14:24:54.148Z,99.90
2022-08-17T14:27:52.453Z,99.90
2022-08-17T14:30:45.247Z,99.90
2022-08-17T14:33:39.401Z,99.90
2022-08-17T14:36:31.825Z,99.90
2022-08-17T14:39:23.143Z,99.90
2022-08-17T14:42:17.821Z,99.90
2022-08-17T14:45:31.740Z,99.90
2022-08-17T14:48:22.162Z,99.90
2022-08-17T14:51:14.548Z,99.90
2022-08-17T14:54:08.767Z,99.90
2022-08-17T14:57:23.828Z,99.90
2022-08-17T15:00:10.312Z,99.90
2022-08-17T15:03:03.177Z,99.90
2022-08-17T15:05:54.308Z,99.90
2022-08-17T15:08:47.285Z,99.90
2022-08-17T15:11:39.549Z,99.90
2022-08-17T15:14:33.906Z,99.90
2022-08-17T15:17:24.524Z,99.90
2022-08-17T15:20:23.858Z,99.90
2022-08-17T15:23:21.952Z,99.90
2022-08-17T15:26:14.033Z,99.90
2022-08-17T15:29:05.410Z,99.90
2022-08-17T15:32:02.835Z,99.90
2022-08-17T15:34:57.408Z,99.90
2022-08-17T15:37:51.559Z,99.90
2022-08-17T15:40:45.369Z,99.90
2022-08-17T15:43:39.425Z,99.90
2022-08-17T15:46:31.484Z,99.90
2022-08-17T15:49:27.540Z,99.90
2022-08-17T15:52:30.314Z,99.90
2022-08-17T15:55:24.225Z,99.90
2022-08-17T15:58:20.083Z,99.90
2022-08-17T16:03:01.077Z,99.90
2022-08-17T16:04:33.908Z,99.90
2022-08-17T16:07:26.716Z,99.90
2022-08-17T16:10:19.862Z,99.90
2022-08-17T16:13:17.420Z,99.90
2022-08-17T16:16:14.799Z,99.90
2022-08-17T16:19:04.323Z,99.90
2022-08-17T16:21:55.730Z,99.90
2022-08-17T16:24:56.953Z,99.20
2022-08-17T16:27:53.494Z,98.40
2022-08-17T16:30:46.571Z,99.90
2022-08-17T16:38:07.113Z,98.00
2022-08-17T16:40:56.763Z,97.00
2022-08-17T16:43:47.156Z,98.40
2022-08-17T16:46:40.296Z,96.80
2022-08-17T16:49:38.096Z,97.70
2022-08-17T16:52:32.297Z,98.80
2022-08-17T16:55:25.592Z,98.30
2022-08-17T16:58:15.882Z,96.60
2022-08-17T17:01:07.810Z,98.60
2022-08-17T17:04:04.476Z,98.20
2022-08-17T17:07:34.466Z,96.70
2022-08-17T17:10:41.429Z,97.30
2022-08-17T17:13:49.152Z,97.60
2022-08-17T17:17:03.897Z,97.50
2022-08-17T17:20:21.698Z,96.90
2022-08-17T17:23:34.517Z,96.30
2022-08-17T17:26:59.124Z,97.20
2022-08-17T17:30:16.085Z,97.30
2022-08-17T17:33:18.466Z,95.60
2022-08-17T17:36:36.418Z,97.10
2022-08-17T17:39:52.561Z,96.30
2022-08-17T17:42:44.674Z,96.60
2022-08-17T17:46:07.699Z,99.40
2022-08-17T17:49:14.435Z,97.20
2022-08-17T17:52:19.081Z,97.90
2022-08-17T17:55:59.911Z,98.80
2022-08-17T17:59:18.138Z,99.60
2022-08-17T18:02:51.527Z,97.70
2022-08-17T18:06:12.494Z,98.30
2022-08-17T18:09:40.763Z,98.00
2022-08-17T18:13:11.936Z,98.70
2022-08-17T18:16:05.751Z,98.40
2022-08-17T18:18:58.022Z,99.50
2022-08-17T18:22:22.166Z,98.60
2022-08-17T18:25:44.902Z,99.90
2022-08-17T18:28:43.223Z,99.90
2022-08-17T18:31:34.789Z,99.80
2022-08-17T18:34:47.249Z,99.90
2022-08-17T18:37:45.717Z,99.90
2022-08-17T18:40:39.165Z,99.90
2022-08-17T18:43:52.966Z,99.90
2022-08-17T18:46:45.317Z,99.90
2022-08-17T18:49:36.922Z,99.90
2022-08-17T18:52:33.732Z,99.90
2022-08-17T18:55:30.061Z,99.90
2022-08-17T18:58:26.887Z,99.90
2022-08-17T19:01:21.510Z,99.90
2022-08-17T19:04:40.066Z,99.90
2022-08-17T19:07:48.853Z,99.90
2022-08-17T19:10:46.270Z,99.90
2022-08-17T19:13:58.230Z,99.90
2022-08-17T19:17:05.485Z,99.90
2022-08-17T19:20:19.819Z,99.90
2022-08-17T19:23:30.408Z,99.90
2022-08-17T19:26:50.730Z,99.90
2022-08-17T19:30:01.652Z,99.90
2022-08-17T19:32:58.313Z,99.90
2022-08-17T19:36:07.941Z,99.90
2022-08-17T19:39:26.460Z,99.90
2022-08-17T19:42:56.293Z,99.90
2022-08-17T19:46:36.587Z,99.90
2022-08-17T19:50:02.299Z,99.90
2022-08-17T19:54:05.031Z,99.90
2022-08-17T19:57:20.183Z,99.90
2022-08-17T20:00:20.897Z,99.90
2022-08-17T20:03:34.741Z,99.90
2022-08-17T20:06:27.094Z,99.90
2022-08-17T20:09:44.340Z,99.90
2022-08-17T20:12:43.981Z,99.90
2022-08-17T20:15:39.158Z,99.90
2022-08-17T20:18:53.419Z,99.90
2022-08-17T20:22:11.305Z,99.90
2022-08-17T20:25:30.911Z,99.90
2022-08-17T20:28:31.716Z,99.90
2022-08-17T20:31:50.512Z,99.90
2022-08-17T20:34:42.576Z,99.90
2022-08-17T20:37:37.126Z,99.90
2022-08-17T20:40:41.752Z,99.90
2022-08-17T20:43:43.491Z,99.90
2022-08-17T20:46:51.546Z,99.90
2022-08-17T20:49:54.934Z,99.90
2022-08-17T20:53:00.811Z,99.90
2022-08-17T20:55:55.718Z,99.90
2022-08-17T20:58:48.227Z,99.90
2022-08-17T21:01:41.119Z,99.90
2022-08-17T21:04:54.569Z,99.90
2022-08-17T21:07:58.113Z,99.90
2022-08-17T21:10:50.215Z,99.90
2022-08-17T21:14:19.773Z,99.90
2022-08-17T21:17:43.090Z,99.90
2022-08-17T21:21:17.776Z,99.90
2022-08-17T21:24:41.891Z,99.90
2022-08-17T21:28:13.338Z,99.90
2022-08-17T21:31:09.723Z,99.90
2022-08-17T21:34:27.058Z,99.90
2022-08-17T21:37:29.482Z,99.90
2022-08-17T21:40:32.072Z,99.90
2022-08-17T21:43:32.448Z,99.90
2022-08-17T21:46:31.174Z,99.90
2022-08-17T21:49:28.612Z,99.90
2022-08-17T21:52:23.605Z,99.90
2022-08-17T21:55:30.303Z,99.90
2022-08-17T21:58:36.699Z,99.90
2022-08-17T22:01:39.107Z,99.90
2022-08-17T22:04:38.868Z,99.90
2022-08-17T22:07:53.181Z,99.90
2022-08-17T22:10:46.028Z,99.90
2022-08-17T22:13:40.091Z,99.90
2022-08-17T22:16:31.574Z,99.90
2022-08-17T22:19:22.585Z,99.90
2022-08-17T22:22:34.105Z,99.90
2022-08-17T22:25:27.949Z,99.90
2022-08-17T22:28:52.327Z,99.90
2022-08-17T22:31:57.532Z,99.90
2022-08-17T22:35:15.721Z,99.90
2022-08-17T22:38:21.938Z,99.90
2022-08-17T22:41:26.862Z,99.90
2022-08-17T22:44:32.906Z,99.90
2022-08-17T22:47:39.482Z,99.90
2022-08-17T22:50:31.585Z,99.90
2022-08-17T22:53:42.726Z,99.90
2022-08-17T22:56:51.228Z,99.90
2022-08-17T22:59:52.689Z,99.90
2022-08-17T23:03:23.732Z,99.90
2022-08-17T23:06:14.768Z,99.90
2022-08-17T23:09:09.055Z,99.90
2022-08-17T23:12:01.929Z,99.90
2022-08-17T23:14:57.386Z,99.90
2022-08-17T23:17:48.037Z,99.90
2022-08-17T23:20:42.412Z,99.90
2022-08-17T23:23:33.824Z,99.90
2022-08-17T23:26:27.794Z,99.90
2022-08-17T23:29:21.296Z,99.90
2022-08-17T23:32:14.939Z,99.90
2022-08-17T23:35:05.280Z,99.90
2022-08-17T23:37:58.709Z,99.90
2022-08-17T23:40:49.351Z,99.90
2022-08-17T23:43:44.053Z,99.90
2022-08-17T23:46:34.714Z,99.90
2022-08-17T23:49:25.127Z,99.90
2022-08-17T23:52:16.631Z,99.90
2022-08-17T23:55:08.379Z,99.90
2022-08-17T23:57:59.374Z,99.90
